Time;durP1;ratioP1;P1;durP2;ratioP2;P2;SDS_P1;SDS_P2;PMS_P1;PMS_P2;Temp;Humidity;BMP_temperature;BMP_pressure;BME280_temperature;BME280_humidity;BME280_pressure;Samples;Min_cycle;Max_cycle;Signal;HPM_P1;HPM_P2
2023/01/04 00:00:37;;;;;;;14.60;7.63;;;7.50;99.90;;;;;;5008191;28;20050;-70
2023/01/04 00:03:02;;;;;;;10.55;6.68;;;7.50;99.90;;;;;;5009147;28;20049;-69
2023/01/04 00:05:28;;;;;;;10.90;6.20;;;7.50;99.90;;;;;;5007317;28;20042;-69
2023/01/04 00:07:54;;;;;;;19.23;6.97;;;7.50;99.90;;;;;;5007288;28;20034;-69
2023/01/04 00:10:19;;;;;;;13.25;7.65;;;7.60;99.90;;;;;;5008243;28;20572;-69
2023/01/04 00:12:45;;;;;;;10.00;6.57;;;7.60;99.90;;;;;;5008466;28;20053;-69
2023/01/04 00:15:10;;;;;;;13.02;7.45;;;7.60;99.90;;;;;;4991851;28;20717;-69
2023/01/04 00:17:36;;;;;;;7.72;6.45;;;7.60;99.90;;;;;;5006049;28;20049;-69
2023/01/04 00:20:02;;;;;;;15.52;6.80;;;7.50;99.90;;;;;;5003679;28;20065;-70
2023/01/04 00:22:27;;;;;;;11.00;5.97;;;7.60;99.90;;;;;;4977891;28;20050;-69
2023/01/04 00:24:53;;;;;;;16.00;6.45;;;7.60;99.90;;;;;;5007147;28;20042;-70
2023/01/04 00:27:18;;;;;;;10.00;5.82;;;7.60;99.90;;;;;;4990435;28;20558;-69
2023/01/04 00:29:44;;;;;;;15.88;6.85;;;7.60;99.90;;;;;;5008187;28;20045;-69
2023/01/04 00:32:10;;;;;;;8.65;5.75;;;7.60;99.90;;;;;;4984013;28;20056;-69
2023/01/04 00:34:35;;;;;;;17.15;6.63;;;7.60;99.90;;;;;;5008088;28;20056;-69
2023/01/04 00:37:01;;;;;;;9.88;5.80;;;7.60;99.90;;;;;;4989922;28;20526;-70
2023/01/04 00:39:28;;;;;;;8.95;6.47;;;7.60;99.90;;;;;;4988611;28;20125;-69
2023/01/04 00:42:03;;;;;;;10.25;5.88;;;7.60;99.90;;;;;;5005954;28;20143;-70
2023/01/04 00:44:31;;;;;;;7.93;5.57;;;7.60;99.90;;;;;;5007864;28;20061;-69
2023/01/04 00:46:58;;;;;;;10.10;6.23;;;7.60;99.90;;;;;;4988051;28;20050;-70
2023/01/04 00:49:25;;;;;;;9.70;6.20;;;7.60;99.90;;;;;;5007924;28;20052;-70
2023/01/04 00:51:50;;;;;;;10.20;5.72;;;7.60;99.90;;;;;;4990575;28;20404;-69
2023/01/04 00:54:16;;;;;;;11.73;6.22;;;7.60;99.90;;;;;;4989644;28;20045;-70
2023/01/04 00:56:43;;;;;;;10.32;6.32;;;7.60;99.90;;;;;;5006098;28;20053;-69
2023/01/04 00:59:10;;;;;;;8.40;6.30;;;7.60;99.90;;;;;;5008007;28;20093;-70
2023/01/04 01:01:36;;;;;;;13.93;6.00;;;7.50;99.90;;;;;;4984242;28;20517;-69
2023/01/04 01:04:03;;;;;;;9.68;6.80;;;7.50;99.90;;;;;;5008018;28;20217;-70
2023/01/04 01:06:30;;;;;;;12.07;6.45;;;7.50;99.90;;;;;;5007957;28;20096;-69
2023/01/04 01:08:56;;;;;;;17.00;7.18;;;7.50;99.90;;;;;;5007429;28;20183;-70
2023/01/04 01:11:22;;;;;;;11.93;6.45;;;7.50;99.90;;;;;;4998794;28;20510;-69
2023/01/04 01:13:51;;;;;;;12.48;7.53;;;7.50;99.90;;;;;;4996220;28;20041;-69
2023/01/04 01:16:20;;;;;;;15.45;6.72;;;7.40;99.90;;;;;;4989603;28;20062;-69
2023/01/04 01:18:46;;;;;;;11.00;6.93;;;7.40;99.90;;;;;;5000123;28;20495;-69
2023/01/04 01:21:14;;;;;;;13.73;6.82;;;7.40;99.90;;;;;;5004893;28;20050;-69
2023/01/04 01:23:40;;;;;;;;;;;7.40;99.90;;;;;;4989712;28;20109;-69
2023/01/04 01:26:08;;;;;;;15.50;6.22;;;7.40;99.90;;;;;;5007569;28;19922;-70
2023/01/04 01:28:35;;;;;;;9.93;6.17;;;7.40;99.90;;;;;;4986851;28;20547;-70
2023/01/04 01:31:08;;;;;;;9.20;6.88;;;7.40;99.90;;;;;;5006288;28;20157;-69
2023/01/04 01:33:39;;;;;;;11.15;7.03;;;7.50;99.90;;;;;;5006663;28;20046;-69
2023/01/04 01:36:05;;;;;;;11.35;6.38;;;7.50;99.90;;;;;;5006720;28;20062;-69
2023/01/04 01:38:31;;;;;;;10.45;6.68;;;7.50;99.90;;;;;;5006953;28;20107;-69
2023/01/04 01:40:56;;;;;;;11.02;6.20;;;7.50;99.90;;;;;;5007205;28;20042;-69
2023/01/04 01:43:50;;;;;;;8.50;6.70;;;7.50;99.90;;;;;;5007232;28;20064;-69
2023/01/04 01:46:33;;;;;;;10.68;6.00;;;7.50;99.90;;;;;;5002547;28;20938;-70
2023/01/04 01:49:27;;;;;;;15.27;7.22;;;7.60;99.90;;;;;;5003339;28;20152;-71
2023/01/04 01:51:55;;;;;;;11.23;6.90;;;7.50;99.90;;;;;;4989641;28;20053;-70
2023/01/04 01:54:46;;;;;;;20.08;7.25;;;7.50;99.90;;;;;;5006596;28;20042;-70
2023/01/04 01:57:18;;;;;;;13.50;6.50;;;7.50;99.90;;;;;;4969943;28;20065;-71
2023/01/04 01:59:49;;;;;;;11.13;6.55;;;7.60;99.90;;;;;;4986543;28;20049;-70
2023/01/04 02:02:14;;;;;;;11.60;6.90;;;7.60;99.90;;;;;;5004338;28;20057;-70
2023/01/04 02:04:45;;;;;;;11.77;6.72;;;7.50;99.90;;;;;;4997272;28;20034;-70
2023/01/04 02:07:14;;;;;;;10.35;7.07;;;7.60;99.90;;;;;;5007057;28;20081;-70
2023/01/04 02:09:40;;;;;;;13.70;7.32;;;7.60;99.90;;;;;;5006219;28;20054;-70
2023/01/04 02:12:10;;;;;;;9.07;6.78;;;7.60;99.90;;;;;;5006005;28;20045;-70
2023/01/04 02:14:36;;;;;;;10.75;7.20;;;7.60;99.90;;;;;;5007056;28;20168;-70
2023/01/04 02:17:05;;;;;;;13.80;7.10;;;7.60;99.90;;;;;;4989185;28;20487;-71
2023/01/04 02:19:37;;;;;;;;;;;7.60;99.90;;;;;;4989007;28;20103;-71
2023/01/04 02:22:40;;;;;;;10.35;6.45;;;7.60;99.90;;;;;;5004177;28;19978;-71
2023/01/04 02:25:30;;;;;;;8.77;6.53;;;7.60;99.90;;;;;;5006689;28;20065;-71
2023/01/04 02:28:07;;;;;;;10.05;5.78;;;7.60;99.90;;;;;;4989176;28;20057;-71
2023/01/04 02:31:00;;;;;;;11.20;6.78;;;7.60;99.90;;;;;;4997982;28;20052;-71
2023/01/04 02:34:04;;;;;;;8.63;5.88;;;7.60;99.90;;;;;;5002112;28;20080;-70
2023/01/04 02:37:07;;;;;;;8.95;6.25;;;7.70;99.90;;;;;;4986644;28;20053;-70
2023/01/04 02:39:53;;;;;;;7.72;5.53;;;7.70;99.90;;;;;;4988185;28;20049;-70
2023/01/04 02:45:40;;;;;;;14.82;5.07;;;7.70;99.90;;;;;;4991627;28;20056;-71
2023/01/04 02:50:59;;;;;;;8.23;5.53;;;7.70;99.90;;;;;;4996620;28;20060;-70
2023/01/04 02:53:27;;;;;;;4.47;4.03;;;7.80;99.90;;;;;;4983118;28;20499;-70
2023/01/04 02:55:57;;;;;;;;;;;7.80;99.90;;;;;;4993402;28;20077;-70
2023/01/04 02:58:46;;;;;;;6.53;5.07;;;7.80;99.90;;;;;;5010363;28;19922;-70
2023/01/04 03:07:10;;;;;;;4.82;4.43;;;7.90;99.90;;;;;;4992031;28;20085;-71
2023/01/04 03:09:40;;;;;;;6.75;4.10;;;8.00;99.90;;;;;;5008140;28;20050;-71
2023/01/04 03:12:33;;;;;;;6.50;4.22;;;8.00;99.90;;;;;;5009634;28;20042;-72
2023/01/04 03:15:22;;;;;;;6.82;4.65;;;8.00;99.90;;;;;;4992000;28;20053;-72
2023/01/04 03:18:42;;;;;;;5.63;4.47;;;8.00;99.90;;;;;;5009745;28;20125;-71
2023/01/04 03:21:10;;;;;;;5.65;3.97;;;8.00;99.90;;;;;;4928692;29;20150;-71
2023/01/04 03:35:51;;;;;;;5.07;4.50;;;8.10;99.90;;;;;;4989675;28;20057;-71
2023/01/04 03:50:46;;;;;;;4.50;3.92;;;8.40;99.90;;;;;;4990726;28;20038;-72
2023/01/04 03:53:13;;;;;;;5.47;4.82;;;8.40;99.90;;;;;;5009082;28;20050;-71
2023/01/04 03:55:41;;;;;;;3.97;3.33;;;8.40;99.90;;;;;;4999575;28;20046;-71
2023/01/04 03:58:07;;;;;;;5.25;4.10;;;8.50;99.90;;;;;;4990225;28;20042;-71
2023/01/04 04:00:34;;;;;;;5.38;4.30;;;8.50;99.90;;;;;;4991206;28;20050;-71
2023/01/04 04:03:06;;;;;;;5.82;3.88;;;8.50;99.90;;;;;;4991239;28;20505;-72
2023/01/04 04:08:30;;;;;;;5.00;4.40;;;8.60;99.90;;;;;;4991312;28;20058;-71
2023/01/04 04:13:45;;;;;;;4.30;3.63;;;8.80;99.90;;;;;;4989644;28;20744;-71
2023/01/04 04:16:11;;;;;;;4.70;3.53;;;8.80;99.90;;;;;;4991027;28;20061;-71
2023/01/04 04:18:37;;;;;;;4.07;3.67;;;8.80;99.90;;;;;;4993443;28;20056;-71
2023/01/04 04:21:03;;;;;;;6.85;4.13;;;8.80;99.90;;;;;;5007923;28;20050;-71
2023/01/04 04:23:29;;;;;;;4.15;3.58;;;8.90;99.90;;;;;;5008112;28;20053;-71
2023/01/04 04:25:54;;;;;;;4.97;4.22;;;8.90;99.90;;;;;;4990916;28;20053;-71
2023/01/04 04:28:20;;;;;;;4.38;3.70;;;8.90;99.90;;;;;;5007542;28;20512;-71
2023/01/04 04:30:48;;;;;;;5.63;4.45;;;8.90;99.90;;;;;;5006726;28;20046;-70
2023/01/04 04:33:14;;;;;;;4.15;3.75;;;8.90;99.90;;;;;;5003557;28;20067;-70
2023/01/04 04:35:40;;;;;;;4.20;3.83;;;9.00;99.90;;;;;;5004552;28;20506;-71
2023/01/04 04:38:06;;;;;;;5.43;3.80;;;9.00;99.90;;;;;;5008219;28;20060;-70
2023/01/04 04:43:16;;;;;;;3.88;3.50;;;9.10;99.90;;;;;;4981485;28;20054;-72
2023/01/04 04:45:42;;;;;;;5.38;3.90;;;9.10;99.90;;;;;;4987685;28;20100;-71
2023/01/04 04:48:08;;;;;;;3.92;3.45;;;9.10;99.90;;;;;;4981499;28;20050;-71
2023/01/04 04:50:33;;;;;;;5.35;4.05;;;9.20;99.90;;;;;;5005424;28;20060;-72
2023/01/04 04:52:59;;;;;;;4.07;3.65;;;9.20;99.90;;;;;;5001044;28;20488;-72
2023/01/04 04:55:25;;;;;;;5.03;3.63;;;9.20;99.90;;;;;;4986133;28;20545;-72
2023/01/04 04:57:50;;;;;;;4.30;3.65;;;9.30;99.90;;;;;;5008231;28;20053;-71
2023/01/04 05:00:16;;;;;;;4.50;3.35;;;9.30;99.90;;;;;;4984175;28;20144;-71
2023/01/04 05:02:42;;;;;;;4.40;3.95;;;9.30;99.90;;;;;;4987745;28;20502;-72
2023/01/04 05:05:08;;;;;;;4.82;3.90;;;9.30;99.90;;;;;;4985954;28;20056;-72
2023/01/04 05:07:34;;;;;;;5.68;3.95;;;9.30;99.90;;;;;;4986335;28;20458;-72
2023/01/04 05:09:59;;;;;;;4.78;4.32;;;9.30;99.90;;;;;;4989977;28;20107;-72
2023/01/04 05:15:10;;;;;;;6.05;5.30;;;9.40;99.90;;;;;;5005726;28;20058;-73
2023/01/04 05:17:36;;;;;;;6.97;5.18;;;9.50;99.90;;;;;;4987562;28;20048;-72
2023/01/04 05:20:03;;;;;;;6.30;5.07;;;9.50;99.90;;;;;;4986987;28;20411;-73
2023/01/04 05:22:29;;;;;;;6.65;5.97;;;9.50;99.90;;;;;;4990002;28;20248;-72
2023/01/04 05:24:54;;;;;;;7.47;5.60;;;9.50;99.90;;;;;;5006447;28;20517;-72
2023/01/04 05:27:21;;;;;;;8.10;6.40;;;9.50;99.90;;;;;;5007471;28;20614;-72
2023/01/04 05:32:31;;;;;;;8.25;7.00;;;9.60;99.90;;;;;;4996691;28;20053;-71
2023/01/04 05:34:56;;;;;;;7.35;6.57;;;9.60;99.90;;;;;;5002452;28;20459;-71
2023/01/04 05:37:22;;;;;;;16.02;7.35;;;9.60;99.90;;;;;;5006040;28;20050;-72
2023/01/04 05:39:47;;;;;;;8.18;6.93;;;9.60;99.90;;;;;;4988884;28;20054;-72
2023/01/04 05:42:25;;;;;;;8.30;7.43;;;9.70;99.90;;;;;;5005717;28;20056;-72
2023/01/04 05:44:54;;;;;;;8.60;7.35;;;9.70;99.90;;;;;;4988838;28;20052;-71
2023/01/04 05:47:21;;;;;;;10.93;8.85;;;9.70;99.90;;;;;;5001408;28;20843;-71
2023/01/04 05:49:47;;;;;;;8.63;7.38;;;9.70;99.90;;;;;;5006429;28;20050;-71
2023/01/04 05:52:13;;;;;;;8.50;7.53;;;9.80;99.90;;;;;;4996704;28;20061;-71
2023/01/04 05:54:39;;;;;;;10.93;8.32;;;9.80;99.90;;;;;;4988300;28;20045;-71
2023/01/04 05:57:05;;;;;;;10.15;8.15;;;9.80;99.90;;;;;;4993187;28;20052;-71
2023/01/04 05:59:32;;;;;;;10.70;7.63;;;9.90;99.90;;;;;;4986380;28;20049;-71
2023/01/04 06:01:57;;;;;;;11.60;9.00;;;9.90;99.90;;;;;;5004331;28;20060;-72
2023/01/04 06:04:23;;;;;;;11.82;9.05;;;9.90;99.90;;;;;;4987144;28;20046;-72
2023/01/04 06:06:49;;;;;;;10.55;8.82;;;9.90;99.90;;;;;;4971167;28;20076;-72
2023/01/04 06:09:14;;;;;;;9.50;8.50;;;9.90;99.90;;;;;;5005938;28;20156;-72
2023/01/04 06:11:40;;;;;;;13.05;8.90;;;9.90;99.90;;;;;;5005273;28;20483;-73
2023/01/04 06:14:07;;;;;;;10.63;8.27;;;9.90;99.90;;;;;;4989585;28;20053;-72
2023/01/04 06:16:32;;;;;;;10.32;7.93;;;10.00;99.90;;;;;;5006902;28;20446;-73
2023/01/04 06:18:58;;;;;;;13.05;9.15;;;10.00;99.90;;;;;;5010503;28;20109;-73
2023/01/04 06:21:26;;;;;;;14.30;8.88;;;10.00;99.90;;;;;;4993470;28;20478;-72
2023/01/04 06:23:52;;;;;;;;;;;10.00;99.90;;;;;;4991972;28;20129;-73
2023/01/04 06:26:18;;;;;;;11.95;8.82;;;10.00;99.90;;;;;;5005765;28;20043;-73
2023/01/04 06:28:44;;;;;;;12.63;8.73;;;10.00;99.90;;;;;;5011192;28;20054;-72
2023/01/04 06:31:10;;;;;;;13.57;8.80;;;10.00;99.90;;;;;;5010287;28;20492;-73
2023/01/04 06:33:36;;;;;;;10.45;8.50;;;10.10;99.90;;;;;;4989512;28;20048;-72
2023/01/04 06:36:02;;;;;;;11.73;8.38;;;10.10;99.90;;;;;;4982978;28;20046;-72
2023/01/04 06:38:29;;;;;;;9.90;7.55;;;10.10;99.90;;;;;;5010347;28;20054;-72
2023/01/04 06:40:54;;;;;;;8.98;8.07;;;10.10;99.90;;;;;;5001893;28;20418;-73
2023/01/04 06:43:20;;;;;;;10.25;7.85;;;10.10;99.90;;;;;;4998094;28;20046;-74
2023/01/04 06:45:45;;;;;;;12.82;8.50;;;10.20;99.90;;;;;;4992956;28;20113;-73
2023/01/04 06:48:12;;;;;;;9.30;7.63;;;10.20;99.90;;;;;;4975528;28;20102;-73
2023/01/04 06:50:38;;;;;;;9.88;6.72;;;10.20;99.90;;;;;;4981139;28;20108;-73
2023/01/04 06:53:03;;;;;;;10.07;7.20;;;10.20;99.90;;;;;;5006787;28;20061;-73
2023/01/04 06:55:29;;;;;;;9.90;7.13;;;10.20;99.90;;;;;;4983838;28;20057;-74
2023/01/04 06:57:55;;;;;;;8.60;6.75;;;10.20;99.90;;;;;;5010049;28;20034;-72
2023/01/04 07:00:21;;;;;;;8.27;6.45;;;10.30;99.90;;;;;;4988470;28;20053;-72
2023/01/04 07:02:47;;;;;;;7.53;6.35;;;10.20;99.90;;;;;;4987403;28;20041;-72
2023/01/04 07:05:13;;;;;;;7.18;5.82;;;10.20;99.90;;;;;;5004856;28;20048;-73
2023/01/04 07:07:38;;;;;;;8.50;6.57;;;10.30;99.90;;;;;;5009008;28;20099;-73
2023/01/04 07:10:05;;;;;;;6.63;5.22;;;10.30;99.90;;;;;;4977917;28;20082;-73
2023/01/04 07:12:31;;;;;;;7.13;6.10;;;10.30;99.90;;;;;;4980118;28;20600;-73
2023/01/04 07:14:57;;;;;;;5.43;4.93;;;10.30;99.90;;;;;;4990408;28;20041;-74
2023/01/04 07:17:22;;;;;;;5.88;5.28;;;10.30;99.90;;;;;;5008464;28;20040;-73
2023/01/04 07:19:48;;;;;;;7.47;6.00;;;10.30;99.90;;;;;;4992258;28;20352;-72
2023/01/04 07:22:14;;;;;;;7.65;5.10;;;10.30;99.90;;;;;;5008715;28;20044;-72
2023/01/04 07:24:40;;;;;;;6.05;5.45;;;10.30;99.90;;;;;;5010122;28;20061;-73
2023/01/04 07:27:06;;;;;;;6.57;5.70;;;10.30;99.90;;;;;;4988006;28;20407;-72
2023/01/04 07:29:31;;;;;;;4.00;3.55;;;10.30;99.90;;;;;;4984835;28;20107;-72
2023/01/04 07:31:57;;;;;;;7.13;5.10;;;10.30;99.90;;;;;;5006476;28;20046;-72
2023/01/04 07:34:24;;;;;;;4.95;3.95;;;10.30;99.90;;;;;;5001954;28;20038;-73
2023/01/04 07:36:50;;;;;;;4.65;4.03;;;10.30;99.90;;;;;;5001237;28;20066;-71
2023/01/04 07:39:17;;;;;;;8.73;4.45;;;10.30;99.90;;;;;;5005487;28;20376;-72
2023/01/04 07:41:43;;;;;;;5.63;5.05;;;10.30;99.90;;;;;;5008780;28;20095;-72
2023/01/04 07:44:10;;;;;;;5.05;4.38;;;10.30;99.90;;;;;;5009402;28;20050;-72
2023/01/04 07:46:36;;;;;;;5.53;3.45;;;10.40;99.90;;;;;;4983510;28;20463;-72
2023/01/04 07:49:03;;;;;;;4.20;3.80;;;10.40;99.90;;;;;;4988673;28;20041;-72
2023/01/04 07:51:30;;;;;;;4.38;3.78;;;10.40;99.90;;;;;;5005589;28;20530;-72
2023/01/04 07:53:55;;;;;;;4.47;3.40;;;10.40;99.90;;;;;;4997369;28;20046;-72
2023/01/04 07:56:21;;;;;;;5.45;4.15;;;10.40;99.90;;;;;;4981822;28;20397;-72
2023/01/04 07:58:47;;;;;;;4.32;3.80;;;10.40;99.90;;;;;;4985961;28;20049;-72
2023/01/04 08:01:17;;;;;;;4.20;3.65;;;10.40;99.90;;;;;;4987857;28;20061;-72
2023/01/04 08:03:44;;;;;;;4.88;3.88;;;10.40;99.90;;;;;;5003441;28;20053;-72
2023/01/04 08:06:12;;;;;;;4.00;3.47;;;10.50;99.90;;;;;;5004084;28;20143;-72
2023/01/04 08:08:38;;;;;;;3.88;3.55;;;10.50;99.90;;;;;;5000269;28;20103;-73
2023/01/04 08:11:05;;;;;;;8.27;3.60;;;10.50;99.90;;;;;;5005265;28;20038;-72
2023/01/04 08:13:31;;;;;;;4.07;3.25;;;10.50;99.90;;;;;;4990090;28;20042;-72
2023/01/04 08:15:58;;;;;;;4.88;4.38;;;10.50;99.90;;;;;;5007193;28;20041;-72
2023/01/04 08:18:24;;;;;;;5.43;3.90;;;10.50;99.90;;;;;;4972495;28;20053;-72
2023/01/04 08:20:59;;;;;;;3.70;3.08;;;10.50;99.90;;;;;;5002443;28;20046;-72
2023/01/04 08:23:25;;;;;;;4.63;3.33;;;10.50;99.90;;;;;;4984155;28;20172;-72
2023/01/04 08:25:50;;;;;;;4.40;3.67;;;10.50;99.90;;;;;;4974393;28;20128;-72
2023/01/04 08:28:17;;;;;;;5.95;4.20;;;10.60;99.90;;;;;;5003867;28;20042;-72
2023/01/04 08:30:43;;;;;;;7.50;4.28;;;10.50;99.90;;;;;;5000727;28;20048;-72
2023/01/04 08:33:13;;;;;;;4.35;3.95;;;10.50;99.90;;;;;;4994787;28;20046;-73
2023/01/04 08:35:40;;;;;;;9.48;4.75;;;10.60;99.90;;;;;;4990692;28;20049;-73
2023/01/04 08:38:05;;;;;;;5.40;3.95;;;10.60;99.90;;;;;;5008134;28;20057;-72
2023/01/04 08:40:31;;;;;;;4.70;4.20;;;10.60;99.90;;;;;;5007382;28;20458;-71
2023/01/04 08:42:57;;;;;;;7.10;4.10;;;10.60;99.90;;;;;;4988841;28;20034;-72
2023/01/04 08:45:22;;;;;;;6.10;4.57;;;10.70;99.90;;;;;;5003240;28;20103;-72
2023/01/04 08:47:48;;;;;;;8.40;4.95;;;10.60;99.90;;;;;;4989084;28;20099;-73
2023/01/04 08:50:15;;;;;;;7.57;3.88;;;10.60;99.90;;;;;;5007831;28;20168;-72
2023/01/04 08:52:41;;;;;;;9.13;4.73;;;10.70;99.90;;;;;;4990012;28;20125;-72
2023/01/04 08:55:07;;;;;;;5.85;4.35;;;10.70;99.90;;;;;;5007986;28;20638;-72
2023/01/04 08:57:34;;;;;;;4.43;3.88;;;10.70;99.90;;;;;;4983894;28;20046;-72
2023/01/04 08:59:59;;;;;;;5.15;4.40;;;10.70;99.90;;;;;;4983170;28;20431;-72
2023/01/04 09:02:26;;;;;;;6.38;3.55;;;10.70;99.90;;;;;;4981819;28;20042;-72
2023/01/04 09:04:58;;;;;;;7.28;4.22;;;10.70;99.90;;;;;;5013031;28;20037;-72
2023/01/04 09:07:28;;;;;;;4.20;3.70;;;10.80;99.90;;;;;;5007143;28;20725;-72
2023/01/04 09:09:53;;;;;;;5.90;3.72;;;10.70;99.90;;;;;;4982209;28;20053;-73
2023/01/04 09:12:19;;;;;;;5.43;4.10;;;10.80;99.90;;;;;;4989004;28;20052;-73
2023/01/04 09:14:45;;;;;;;4.50;3.80;;;10.80;99.90;;;;;;4983946;28;20045;-72
2023/01/04 09:17:10;;;;;;;4.40;3.47;;;10.80;99.90;;;;;;4997514;28;20436;-72
2023/01/04 09:19:36;;;;;;;5.07;3.47;;;10.80;99.90;;;;;;5000495;28;20038;-71
2023/01/04 09:22:02;;;;;;;3.03;2.72;;;10.80;99.90;;;;;;4997742;28;20529;-71
2023/01/04 09:24:28;;;;;;;4.22;3.05;;;10.80;99.90;;;;;;5000847;28;20513;-72
2023/01/04 09:26:53;;;;;;;3.22;2.88;;;10.90;99.90;;;;;;4992707;28;20116;-71
2023/01/04 09:29:19;;;;;;;6.28;3.70;;;10.90;99.90;;;;;;5006092;28;20402;-72
2023/01/04 09:31:45;;;;;;;2.83;2.63;;;10.90;99.90;;;;;;4989581;28;20045;-71
2023/01/04 09:34:11;;;;;;;3.95;2.60;;;10.90;99.90;;;;;;5007346;28;20113;-71
2023/01/04 09:36:38;;;;;;;5.10;3.35;;;10.90;99.90;;;;;;5007229;28;20057;-71
2023/01/04 09:39:03;;;;;;;3.25;2.25;;;10.80;99.90;;;;;;5003875;28;20092;-71
2023/01/04 09:41:34;;;;;;;2.58;2.33;;;10.90;99.90;;;;;;5002072;28;20519;-73
2023/01/04 09:44:23;;;;;;;7.32;2.92;;;10.90;99.90;;;;;;4998458;28;20053;-72
2023/01/04 09:46:58;;;;;;;2.20;2.00;;;10.90;99.90;;;;;;4989453;28;20088;-73
2023/01/04 09:49:42;;;;;;;2.60;2.40;;;10.90;99.90;;;;;;4988152;28;20829;-72
2023/01/04 09:52:24;;;;;;;2.33;2.13;;;10.90;99.90;;;;;;4999872;28;20049;-72
2023/01/04 09:54:59;;;;;;;2.40;2.17;;;10.90;99.90;;;;;;5007293;28;20045;-72
2023/01/04 09:57:26;;;;;;;1.88;1.75;;;10.90;99.90;;;;;;5006350;28;20094;-73
2023/01/04 10:00:01;;;;;;;1.92;1.83;;;10.90;99.90;;;;;;5007302;28;20538;-72
2023/01/04 10:02:54;;;;;;;1.73;1.63;;;11.00;99.90;;;;;;4984734;28;20060;-72
2023/01/04 10:05:26;;;;;;;2.67;1.75;;;10.90;99.90;;;;;;4999576;28;20061;-73
2023/01/04 10:07:53;;;;;;;1.92;1.67;;;10.90;99.90;;;;;;4985135;28;20057;-72
2023/01/04 10:10:34;;;;;;;2.63;1.58;;;10.90;99.90;;;;;;4999222;28;20065;-72
2023/01/04 10:13:16;;;;;;;2.10;1.90;;;11.00;99.90;;;;;;5002622;28;20403;-72
2023/01/04 10:15:49;;;;;;;1.77;1.67;;;11.00;99.90;;;;;;4989056;28;20069;-72
2023/01/04 10:18:28;;;;;;;1.60;1.50;;;11.00;99.90;;;;;;4971568;28;20056;-70
2023/01/04 10:21:10;;;;;;;1.70;1.60;;;11.00;99.90;;;;;;4969724;28;20642;-71
2023/01/04 10:23:51;;;;;;;1.85;1.58;;;11.00;99.90;;;;;;4983273;28;20046;-72
2023/01/04 10:26:47;;;;;;;2.45;2.25;;;11.00;99.90;;;;;;4997676;28;20046;-71
2023/01/04 10:29:47;;;;;;;3.10;2.22;;;11.00;99.90;;;;;;4997399;28;20161;-71
2023/01/04 10:32:30;;;;;;;4.45;2.33;;;11.00;99.90;;;;;;4996908;28;20542;-71
2023/01/04 10:34:56;;;;;;;9.50;2.50;;;11.10;99.90;;;;;;4997592;28;20049;-71
2023/01/04 10:37:26;;;;;;;7.93;3.65;;;11.10;99.90;;;;;;5000554;28;20088;-71
2023/01/04 10:39:54;;;;;;;5.35;2.92;;;11.10;99.90;;;;;;5000867;28;20072;-71
2023/01/04 10:42:36;;;;;;;5.18;3.10;;;11.10;99.90;;;;;;4994176;28;20042;-71
2023/01/04 10:45:26;;;;;;;7.80;3.13;;;11.10;99.90;;;;;;5001927;28;20654;-71
2023/01/04 10:48:13;;;;;;;14.02;4.35;;;11.20;99.90;;;;;;4985578;28;20054;-72
2023/01/04 10:50:58;;;;;;;7.57;2.78;;;11.20;99.90;;;;;;4988717;28;20064;-71
2023/01/04 10:53:27;;;;;;;9.80;4.50;;;11.20;99.90;;;;;;4993557;28;20058;-71
2023/01/04 10:55:58;;;;;;;11.43;4.78;;;11.30;99.90;;;;;;4989064;28;20054;-71
2023/01/04 10:58:45;;;;;;;20.55;4.63;;;11.30;99.90;;;;;;5004616;28;20046;-71
2023/01/04 11:01:27;;;;;;;13.48;4.97;;;11.30;99.90;;;;;;4983565;28;20140;-71
2023/01/04 11:04:08;;;;;;;14.82;4.95;;;11.30;99.90;;;;;;5010162;28;20054;-71
2023/01/04 11:06:40;;;;;;;22.20;5.28;;;11.40;99.90;;;;;;4983764;28;20550;-71
2023/01/04 11:09:31;;;;;;;21.95;5.30;;;11.40;99.90;;;;;;5010000;28;20046;-71
2023/01/04 11:11:59;;;;;;;21.00;5.20;;;11.40;99.90;;;;;;4988580;28;20546;-71
2023/01/04 11:14:25;;;;;;;22.65;6.13;;;11.40;99.90;;;;;;4992111;28;20060;-72
2023/01/04 11:16:57;;;;;;;26.08;6.13;;;11.50;99.90;;;;;;5007158;28;20042;-72
2023/01/04 11:19:23;;;;;;;28.38;7.07;;;11.50;99.90;;;;;;4990793;28;20050;-72
2023/01/04 11:21:57;;;;;;;31.95;6.88;;;11.50;99.90;;;;;;5009605;28;20056;-72
2023/01/04 11:24:24;;;;;;;19.75;6.53;;;11.50;99.90;;;;;;4982090;28;20096;-72
2023/01/04 11:26:52;;;;;;;20.27;5.47;;;11.50;99.90;;;;;;5009295;28;20101;-72
2023/01/04 11:29:51;;;;;;;26.23;5.78;;;11.60;99.90;;;;;;5009681;28;20038;-71
2023/01/04 11:32:29;;;;;;;18.05;6.55;;;11.60;99.90;;;;;;4999374;28;20069;-71
2023/01/04 11:34:57;;;;;;;20.67;5.60;;;11.50;99.90;;;;;;4981307;28;20464;-72
2023/01/04 11:37:32;;;;;;;31.63;6.90;;;11.60;99.90;;;;;;4986851;28;20057;-72
2023/01/04 11:40:16;;;;;;;23.17;5.82;;;11.60;99.90;;;;;;5001599;28;20046;-72
2023/01/04 11:42:46;;;;;;;26.40;6.55;;;11.60;99.90;;;;;;4991572;28;20061;-71
2023/01/04 11:45:24;;;;;;;16.42;6.03;;;11.60;99.90;;;;;;5008861;28;20460;-71
2023/01/04 11:47:55;;;;;;;13.93;4.93;;;11.60;99.90;;;;;;5009410;28;20052;-72
2023/01/04 11:50:44;;;;;;;16.35;5.32;;;11.60;99.90;;;;;;4990650;28;20387;-71
2023/01/04 11:53:29;;;;;;;13.25;4.75;;;11.70;99.90;;;;;;4998575;28;20049;-71
2023/01/04 11:56:21;;;;;;;25.83;6.20;;;11.70;99.90;;;;;;5009189;28;20129;-71
2023/01/04 11:59:12;;;;;;;24.08;6.18;;;11.70;99.90;;;;;;5009549;28;20125;-71
2023/01/04 12:01:43;;;;;;;19.48;6.30;;;11.80;99.90;;;;;;4987962;28;20054;-71
2023/01/04 12:04:18;;;;;;;31.25;6.30;;;11.70;99.90;;;;;;5000733;28;20136;-71
2023/01/04 12:06:55;;;;;;;23.70;6.60;;;11.80;99.90;;;;;;4980158;28;20096;-71
2023/01/04 12:09:21;;;;;;;18.27;5.93;;;11.80;99.90;;;;;;5007344;28;20502;-71
2023/01/04 12:11:55;;;;;;;32.50;5.82;;;11.80;99.90;;;;;;4988724;28;20053;-71
2023/01/04 12:14:28;;;;;;;17.35;5.25;;;11.80;99.90;;;;;;4986187;28;20042;-71
2023/01/04 12:17:06;;;;;;;19.92;4.82;;;11.80;99.90;;;;;;4989417;28;20049;-71
2023/01/04 12:19:33;;;;;;;22.25;6.55;;;11.80;99.90;;;;;;4991230;28;20403;-71
2023/01/04 12:22:01;;;;;;;13.33;4.50;;;11.80;99.90;;;;;;5008475;28;20451;-72
2023/01/04 12:24:30;;;;;;;12.25;4.03;;;11.90;99.90;;;;;;4999514;28;20081;-72
2023/01/04 12:26:57;;;;;;;21.35;5.20;;;11.90;99.90;;;;;;5008429;28;20046;-71
2023/01/04 12:29:22;;;;;;;16.35;5.40;;;11.90;99.90;;;;;;5006924;28;20132;-70
2023/01/04 12:31:51;;;;;;;18.10;4.93;;;11.90;99.90;;;;;;4999506;28;20575;-71
2023/01/04 12:34:24;;;;;;;10.48;3.92;;;11.90;99.90;;;;;;4993943;28;20600;-71
2023/01/04 12:36:53;;;;;;;14.45;4.35;;;11.90;99.90;;;;;;4983604;28;20058;-71
2023/01/04 12:39:21;;;;;;;;;;;11.90;99.90;;;;;;5000529;28;20515;-71
2023/01/04 12:42:05;;;;;;;12.85;3.95;;;11.80;99.90;;;;;;4998509;28;19932;-71
2023/01/04 12:44:38;;;;;;;13.07;4.00;;;11.80;99.90;;;;;;4983719;28;20482;-71
2023/01/04 12:50:13;;;;;;;8.52;3.05;;;11.80;99.90;;;;;;4984188;28;20503;-71
2023/01/04 12:52:54;;;;;;;7.22;3.10;;;11.90;99.90;;;;;;5001655;28;20046;-71
2023/01/04 12:55:23;;;;;;;10.38;2.63;;;11.80;99.90;;;;;;5004081;28;20062;-70
2023/01/04 12:57:49;;;;;;;7.97;2.55;;;11.90;99.90;;;;;;4987685;28;20053;-71
2023/01/04 13:00:15;;;;;;;6.35;2.05;;;11.80;99.90;;;;;;4990014;28;20058;-71
2023/01/04 13:02:46;;;;;;;5.60;2.20;;;11.90;99.90;;;;;;4990342;28;20380;-71
2023/01/04 13:05:18;;;;;;;12.27;3.45;;;11.90;99.90;;;;;;5007383;28;20060;-70
2023/01/04 13:07:53;;;;;;;6.75;2.92;;;11.80;99.90;;;;;;5006914;28;20046;-71
2023/01/04 13:10:33;;;;;;;5.88;2.70;;;11.90;99.90;;;;;;4990296;28;20081;-70
2023/01/04 13:13:14;;;;;;;10.60;3.20;;;11.90;99.90;;;;;;5007473;28;20050;-71
2023/01/04 13:15:52;;;;;;;19.08;4.28;;;11.90;99.90;;;;;;4989102;28;20128;-71
2023/01/04 13:18:34;;;;;;;10.02;3.85;;;11.90;99.90;;;;;;5005831;28;20042;-71
2023/01/04 13:21:08;;;;;;;16.10;4.15;;;11.80;99.90;;;;;;5004187;28;20100;-71
2023/01/04 13:23:34;;;;;;;18.98;5.30;;;11.80;99.90;;;;;;5001913;28;20038;-71
2023/01/04 13:26:27;;;;;;;14.02;4.75;;;11.80;99.90;;;;;;5001984;28;20046;-70
2023/01/04 13:29:21;;;;;;;18.50;5.35;;;11.80;99.90;;;;;;5006563;28;20069;-71
2023/01/04 13:31:58;;;;;;;18.65;5.50;;;11.80;99.90;;;;;;5003083;28;20038;-70
2023/01/04 13:34:54;;;;;;;24.50;4.80;;;11.80;99.90;;;;;;5001348;28;20525;-69
2023/01/04 13:37:36;;;;;;;19.75;5.15;;;11.80;99.90;;;;;;5000655;28;20861;-69
2023/01/04 13:40:34;;;;;;;16.83;5.88;;;11.80;99.90;;;;;;5007216;28;20455;-69
2023/01/04 13:43:16;;;;;;;20.83;6.57;;;11.80;99.90;;;;;;4978390;28;20062;-70
2023/01/04 13:46:09;;;;;;;26.77;6.07;;;11.80;99.90;;;;;;4985865;28;20058;-70
2023/01/04 13:48:38;;;;;;;23.10;6.53;;;11.80;99.90;;;;;;4967275;28;20050;-70
2023/01/04 13:51:14;;;;;;;25.35;6.65;;;11.70;99.90;;;;;;4995501;28;20054;-70
2023/01/04 13:53:41;;;;;;;16.90;5.03;;;11.70;99.90;;;;;;5007198;28;20177;-71
2023/01/04 13:56:28;;;;;;;26.50;5.68;;;11.70;99.90;;;;;;5002187;28;20088;-70
2023/01/04 13:58:54;;;;;;;29.05;6.45;;;11.70;99.90;;;;;;4969168;28;20052;-70
2023/01/04 14:01:40;;;;;;;22.83;6.72;;;11.70;99.90;;;;;;4999232;28;20520;-70